sensor_id;sensor_type;location;lat;lon;timestamp;pressure;altitude;pressure_sealevel;temperature;humidity
23261;BME280;11799;47.740;-3.390;2022-09-09T00:04:59;101037.63;;;16.31;79.64
23261;BME280;11799;47.740;-3.390;2022-09-09T00:15:20;101026.97;;;16.31;79.82
23261;BME280;11799;47.740;-3.390;2022-09-09T00:18:11;101024.31;;;16.31;79.74
23261;BME280;11799;47.740;-3.390;2022-09-09T00:20:55;101025.97;;;16.32;79.15
23261;BME280;11799;47.740;-3.390;2022-09-09T00:23:30;101025.28;;;16.30;79.71
23261;BME280;11799;47.740;-3.390;2022-09-09T00:26:08;101024.44;;;16.30;80.09
23261;BME280;11799;47.740;-3.390;2022-09-09T00:28:39;101026.28;;;16.29;79.45
23261;BME280;11799;47.740;-3.390;2022-09-09T00:31:16;101021.94;;;16.28;79.71
23261;BME280;11799;47.740;-3.390;2022-09-09T00:33:44;101024.59;;;16.28;79.22
23261;BME280;11799;47.740;-3.390;2022-09-09T00:36:14;101022.78;;;16.29;79.19
23261;BME280;11799;47.740;-3.390;2022-09-09T00:38:51;101027.41;;;16.27;79.35
23261;BME280;11799;47.740;-3.390;2022-09-09T00:57:26;101032.59;;;16.28;78.78
23261;BME280;11799;47.740;-3.390;2022-09-09T01:11:23;101036.09;;;16.29;77.80
23261;BME280;11799;47.740;-3.390;2022-09-09T01:13:56;101021.09;;;16.28;78.00
23261;BME280;11799;47.740;-3.390;2022-09-09T01:16:27;101028.09;;;16.29;78.77
23261;BME280;11799;47.740;-3.390;2022-09-09T01:18:55;101027.25;;;16.28;78.47
23261;BME280;11799;47.740;-3.390;2022-09-09T01:21:49;101028.94;;;16.29;78.91
23261;BME280;11799;47.740;-3.390;2022-09-09T01:24:45;101024.44;;;16.30;79.04
23261;BME280;11799;47.740;-3.390;2022-09-09T01:27:24;101023.63;;;16.29;78.50
23261;BME280;11799;47.740;-3.390;2022-09-09T01:29:51;101022.78;;;16.29;78.22
23261;BME280;11799;47.740;-3.390;2022-09-09T01:32:45;101029.94;;;16.28;78.43
23261;BME280;11799;47.740;-3.390;2022-09-09T01:37:56;101045.91;;;16.28;78.06
23261;BME280;11799;47.740;-3.390;2022-09-09T01:40:21;101037.94;;;16.28;78.38
23261;BME280;11799;47.740;-3.390;2022-09-09T01:42:48;101033.44;;;16.29;78.43
23261;BME280;11799;47.740;-3.390;2022-09-09T01:45:14;101039.59;;;16.29;78.14
23261;BME280;11799;47.740;-3.390;2022-09-09T01:47:40;101029.09;;;16.28;78.81
23261;BME280;11799;47.740;-3.390;2022-09-09T02:01:22;101043.78;;;16.32;78.74
23261;BME280;11799;47.740;-3.390;2022-09-09T02:03:56;101045.47;;;16.33;78.41
23261;BME280;11799;47.740;-3.390;2022-09-09T02:06:30;101039.16;;;16.34;79.15
23261;BME280;11799;47.740;-3.390;2022-09-09T02:09:10;101045.63;;;16.31;78.61
23261;BME280;11799;47.740;-3.390;2022-09-09T02:11:38;101047.16;;;16.34;78.85
23261;BME280;11799;47.740;-3.390;2022-09-09T02:14:28;101047.97;;;16.34;78.26
23261;BME280;11799;47.740;-3.390;2022-09-09T02:17:14;101052.47;;;16.34;78.85
23261;BME280;11799;47.740;-3.390;2022-09-09T02:20:05;101052.47;;;16.34;78.28
23261;BME280;11799;47.740;-3.390;2022-09-09T02:22:45;101050.66;;;16.34;78.28
23261;BME280;11799;47.740;-3.390;2022-09-09T02:25:19;101051.63;;;16.33;78.16
23261;BME280;11799;47.740;-3.390;2022-09-09T02:27:46;101047.97;;;16.34;78.50
23261;BME280;11799;47.740;-3.390;2022-09-09T02:30:13;101047.16;;;16.34;77.97
23261;BME280;11799;47.740;-3.390;2022-09-09T02:32:51;101040.97;;;16.33;77.96
23261;BME280;11799;47.740;-3.390;2022-09-09T02:35:21;101040.97;;;16.33;78.07
23261;BME280;11799;47.740;-3.390;2022-09-09T02:37:51;101047.16;;;16.34;77.97
23261;BME280;11799;47.740;-3.390;2022-09-09T02:40:19;101041.81;;;16.34;78.25
23261;BME280;11799;47.740;-3.390;2022-09-09T02:42:51;101053.31;;;16.34;77.59
23261;BME280;11799;47.740;-3.390;2022-09-09T02:45:21;101036.50;;;16.34;78.01
23261;BME280;11799;47.740;-3.390;2022-09-09T02:50:35;101036.78;;;16.31;78.08
23261;BME280;11799;47.740;-3.390;2022-09-09T02:53:17;101043.25;;;16.28;77.54
23261;BME280;11799;47.740;-3.390;2022-09-09T02:58:20;101042.72;;;16.25;78.15
23261;BME280;11799;47.740;-3.390;2022-09-09T03:00:54;101044.53;;;16.24;78.05
23261;BME280;11799;47.740;-3.390;2022-09-09T03:03:22;101046.53;;;16.22;78.15
23261;BME280;11799;47.740;-3.390;2022-09-09T03:05:50;101042.19;;;16.21;78.65
23261;BME280;11799;47.740;-3.390;2022-09-09T03:08:16;101040.66;;;16.18;78.26
23261;BME280;11799;47.740;-3.390;2022-09-09T03:10:43;101043.31;;;16.18;78.83
23261;BME280;11799;47.740;-3.390;2022-09-09T03:13:10;101050.66;;;16.16;78.80
23261;BME280;11799;47.740;-3.390;2022-09-09T03:15:38;101054.16;;;16.17;78.90
23261;BME280;11799;47.740;-3.390;2022-09-09T03:18:06;101052.63;;;16.14;78.80
23261;BME280;11799;47.740;-3.390;2022-09-09T03:20:32;101050.09;;;16.13;79.05
23261;BME280;11799;47.740;-3.390;2022-09-09T03:22:59;101052.78;;;16.13;78.96
23261;BME280;11799;47.740;-3.390;2022-09-09T03:25:25;101051.09;;;16.12;78.69
23261;BME280;11799;47.740;-3.390;2022-09-09T03:27:53;101058.25;;;16.11;78.82
23261;BME280;11799;47.740;-3.390;2022-09-09T03:30:24;101064.28;;;16.13;79.29
23261;BME280;11799;47.740;-3.390;2022-09-09T03:32:51;101058.94;;;16.13;78.67
23261;BME280;11799;47.740;-3.390;2022-09-09T03:35:17;101061.47;;;16.15;78.65
23261;BME280;11799;47.740;-3.390;2022-09-09T03:37:43;101063.97;;;16.16;78.52
23261;BME280;11799;47.740;-3.390;2022-09-09T03:40:11;101061.13;;;16.18;79.33
23261;BME280;11799;47.740;-3.390;2022-09-09T03:42:37;101063.66;;;16.19;78.17
23261;BME280;11799;47.740;-3.390;2022-09-09T03:45:04;101054.16;;;16.17;78.71
23261;BME280;11799;47.740;-3.390;2022-09-09T03:47:30;101055.28;;;16.14;77.85
23261;BME280;11799;47.740;-3.390;2022-09-09T03:50:04;101058.78;;;16.15;78.26
23261;BME280;11799;47.740;-3.390;2022-09-09T03:52:35;101060.63;;;16.14;78.35
23261;BME280;11799;47.740;-3.390;2022-09-09T03:55:01;101054.44;;;16.14;78.02
23261;BME280;11799;47.740;-3.390;2022-09-09T03:57:26;101051.94;;;16.12;78.41
23261;BME280;11799;47.740;-3.390;2022-09-09T03:59:52;101061.47;;;16.15;78.51
23261;BME280;11799;47.740;-3.390;2022-09-09T04:02:18;101062.44;;;16.14;78.78
23261;BME280;11799;47.740;-3.390;2022-09-09T04:04:43;101062.59;;;16.12;78.97
23261;BME280;11799;47.740;-3.390;2022-09-09T04:07:09;101061.75;;;16.12;79.00
23261;BME280;11799;47.740;-3.390;2022-09-09T04:09:35;101065.41;;;16.11;78.63
23261;BME280;11799;47.740;-3.390;2022-09-09T04:12:00;101070.88;;;16.09;78.72
23261;BME280;11799;47.740;-3.390;2022-09-09T04:14:28;101058.56;;;16.08;78.93
23261;BME280;11799;47.740;-3.390;2022-09-09T04:16:56;101070.03;;;16.09;79.27
23261;BME280;11799;47.740;-3.390;2022-09-09T04:19:23;101075.38;;;16.09;79.17
23261;BME280;11799;47.740;-3.390;2022-09-09T04:21:49;101070.03;;;16.09;79.14
23261;BME280;11799;47.740;-3.390;2022-09-09T04:24:18;101080.69;;;16.09;79.08
23261;BME280;11799;47.740;-3.390;2022-09-09T04:26:44;101066.53;;;16.08;79.31
23261;BME280;11799;47.740;-3.390;2022-09-09T04:29:10;101069.50;;;16.05;79.22
23261;BME280;11799;47.740;-3.390;2022-09-09T04:31:37;101086.31;;;16.06;79.37
23261;BME280;11799;47.740;-3.390;2022-09-09T04:34:11;101074.97;;;16.04;79.24
23261;BME280;11799;47.740;-3.390;2022-09-09T04:36:36;101078.63;;;16.03;78.86
23261;BME280;11799;47.740;-3.390;2022-09-09T04:39:06;101081.44;;;16.01;79.08
23261;BME280;11799;47.740;-3.390;2022-09-09T04:41:32;101074.44;;;16.00;78.92
23261;BME280;11799;47.740;-3.390;2022-09-09T04:43:58;101071.06;;;15.98;78.82
23261;BME280;11799;47.740;-3.390;2022-09-09T04:46:25;101079.06;;;15.98;79.06
23261;BME280;11799;47.740;-3.390;2022-09-09T04:48:50;101077.53;;;15.96;78.84
23261;BME280;11799;47.740;-3.390;2022-09-09T04:51:17;101074.19;;;15.94;78.73
23261;BME280;11799;47.740;-3.390;2022-09-09T04:53:45;101075.03;;;15.94;79.03
23261;BME280;11799;47.740;-3.390;2022-09-09T04:56:14;101072.34;;;15.94;79.03
23261;BME280;11799;47.740;-3.390;2022-09-09T04:58:50;101086.66;;;15.93;78.58
23261;BME280;11799;47.740;-3.390;2022-09-09T05:01:21;101076.00;;;15.93;78.09
23261;BME280;11799;47.740;-3.390;2022-09-09T05:03:49;101077.84;;;15.93;78.64
23261;BME280;11799;47.740;-3.390;2022-09-09T05:06:20;101075.03;;;15.94;78.40
23261;BME280;11799;47.740;-3.390;2022-09-09T05:08:48;101081.03;;;15.96;78.69
23261;BME280;11799;47.740;-3.390;2022-09-09T05:11:27;101082.72;;;15.97;78.82
23261;BME280;11799;47.740;-3.390;2022-09-09T05:13:57;101083.69;;;15.96;78.56
23261;BME280;11799;47.740;-3.390;2022-09-09T05:16:23;101087.91;;;15.99;78.68
23261;BME280;11799;47.740;-3.390;2022-09-09T05:18:49;101083.25;;;16.01;79.03
23261;BME280;11799;47.740;-3.390;2022-09-09T05:21:18;101092.94;;;16.02;79.04
23261;BME280;11799;47.740;-3.390;2022-09-09T05:23:45;101088.59;;;16.01;79.14
23261;BME280;11799;47.740;-3.390;2022-09-09T05:26:16;101097.13;;;16.04;79.59
23261;BME280;11799;47.740;-3.390;2022-09-09T05:28:42;101091.81;;;16.04;78.99
23261;BME280;11799;47.740;-3.390;2022-09-09T05:31:09;101096.28;;;16.04;79.33
23261;BME280;11799;47.740;-3.390;2022-09-09T05:33:36;101093.63;;;16.04;79.16
23261;BME280;11799;47.740;-3.390;2022-09-09T05:36:11;101105.97;;;16.05;79.04
23261;BME280;11799;47.740;-3.390;2022-09-09T05:38:39;101103.16;;;16.06;79.57
23261;BME280;11799;47.740;-3.390;2022-09-09T05:41:06;101111.13;;;16.06;79.54
23261;BME280;11799;47.740;-3.390;2022-09-09T05:43:32;101109.31;;;16.07;79.33
23261;BME280;11799;47.740;-3.390;2022-09-09T05:48:38;101118.00;;;16.09;79.42
23261;BME280;11799;47.740;-3.390;2022-09-09T05:51:05;101118.84;;;16.09;79.18
23261;BME280;11799;47.740;-3.390;2022-09-09T05:53:35;101122.34;;;16.10;78.98
23261;BME280;11799;47.740;-3.390;2022-09-09T05:56:01;101122.19;;;16.11;78.88
23261;BME280;11799;47.740;-3.390;2022-09-09T05:58:31;101127.53;;;16.11;79.09
23261;BME280;11799;47.740;-3.390;2022-09-09T06:03:30;101130.59;;;16.16;79.31
23261;BME280;11799;47.740;-3.390;2022-09-09T06:06:02;101126.91;;;16.17;78.95
23261;BME280;11799;47.740;-3.390;2022-09-09T06:08:31;101120.44;;;16.20;79.18
23261;BME280;11799;47.740;-3.390;2022-09-09T06:11:02;101131.94;;;16.21;78.81
23261;BME280;11799;47.740;-3.390;2022-09-09T06:13:29;101134.44;;;16.22;78.82
23261;BME280;11799;47.740;-3.390;2022-09-09T06:15:55;101135.97;;;16.25;78.82
23261;BME280;11799;47.740;-3.390;2022-09-09T06:18:21;101128.81;;;16.25;78.97
23261;BME280;11799;47.740;-3.390;2022-09-09T06:21:01;101134.00;;;16.27;78.57
23261;BME280;11799;47.740;-3.390;2022-09-09T06:23:28;101135.53;;;16.29;78.91
23261;BME280;11799;47.740;-3.390;2022-09-09T06:26:07;101138.06;;;16.31;78.75
23261;BME280;11799;47.740;-3.390;2022-09-09T06:28:35;101135.25;;;16.32;79.14
23261;BME280;11799;47.740;-3.390;2022-09-09T06:31:11;101138.59;;;16.34;78.16
23261;BME280;11799;47.740;-3.390;2022-09-09T06:33:41;101139.59;;;16.33;78.49
23261;BME280;11799;47.740;-3.390;2022-09-09T06:36:11;101144.78;;;16.35;78.31
23261;BME280;11799;47.740;-3.390;2022-09-09T06:38:37;101146.44;;;16.36;78.31
23261;BME280;11799;47.740;-3.390;2022-09-09T06:41:03;101153.59;;;16.35;77.81
23261;BME280;11799;47.740;-3.390;2022-09-09T06:43:32;101157.09;;;16.36;77.68
23261;BME280;11799;47.740;-3.390;2022-09-09T06:46:06;101153.31;;;16.38;78.27
23261;BME280;11799;47.740;-3.390;2022-09-09T06:48:34;101168.84;;;16.43;78.44
23261;BME280;11799;47.740;-3.390;2022-09-09T06:51:04;101163.91;;;16.48;77.31
23261;BME280;11799;47.740;-3.390;2022-09-09T06:53:31;101169.34;;;16.56;77.79
23261;BME280;11799;47.740;-3.390;2022-09-09T06:56:18;101169.59;;;16.63;77.60
23261;BME280;11799;47.740;-3.390;2022-09-09T06:58:45;101182.34;;;16.69;77.46
23261;BME280;11799;47.740;-3.390;2022-09-09T07:01:18;101172.59;;;16.77;77.26
23261;BME280;11799;47.740;-3.390;2022-09-09T07:03:47;101175.66;;;16.82;76.67
23261;BME280;11799;47.740;-3.390;2022-09-09T07:06:22;101179.16;;;17.01;76.88
23261;BME280;11799;47.740;-3.390;2022-09-09T07:08:55;101189.25;;;17.50;74.84
23261;BME280;11799;47.740;-3.390;2022-09-09T07:11:25;101177.69;;;18.62;73.74
23261;BME280;11799;47.740;-3.390;2022-09-09T07:13:57;101180.13;;;19.46;69.58
23261;BME280;11799;47.740;-3.390;2022-09-09T07:16:23;101174.59;;;20.27;66.38
23261;BME280;11799;47.740;-3.390;2022-09-09T07:18:50;101175.84;;;20.56;63.87
23261;BME280;11799;47.740;-3.390;2022-09-09T07:21:16;101173.38;;;20.46;65.05
23261;BME280;11799;47.740;-3.390;2022-09-09T07:23:43;101181.97;;;20.25;64.30
23261;BME280;11799;47.740;-3.390;2022-09-09T07:26:13;101191.94;;;20.08;65.19
23261;BME280;11799;47.740;-3.390;2022-09-09T07:28:39;101193.13;;;20.06;67.23
23261;BME280;11799;47.740;-3.390;2022-09-09T07:31:06;101188.25;;;20.57;64.94
23261;BME280;11799;47.740;-3.390;2022-09-09T07:33:34;101183.47;;;20.75;63.62
23261;BME280;11799;47.740;-3.390;2022-09-09T07:36:10;101190.75;;;20.89;65.29
23261;BME280;11799;47.740;-3.390;2022-09-09T07:38:43;101189.66;;;20.98;64.55
23261;BME280;11799;47.740;-3.390;2022-09-09T07:41:16;101198.50;;;21.07;62.99
23261;BME280;11799;47.740;-3.390;2022-09-09T07:43:45;101185.13;;;20.99;63.09
23261;BME280;11799;47.740;-3.390;2022-09-09T07:46:13;101193.06;;;20.92;62.08
23261;BME280;11799;47.740;-3.390;2022-09-09T07:48:48;101185.66;;;20.94;63.81
23261;BME280;11799;47.740;-3.390;2022-09-09T07:51:24;101195.53;;;20.79;63.42
23261;BME280;11799;47.740;-3.390;2022-09-09T07:53:58;101192.44;;;20.82;64.48
23261;BME280;11799;47.740;-3.390;2022-09-09T07:56:26;101194.59;;;20.87;63.91
23261;BME280;11799;47.740;-3.390;2022-09-09T07:58:53;101203.56;;;20.79;62.62
23261;BME280;11799;47.740;-3.390;2022-09-09T08:01:23;101192.03;;;20.70;63.79
23261;BME280;11799;47.740;-3.390;2022-09-09T08:06:29;101205.63;;;20.69;63.55
23261;BME280;11799;47.740;-3.390;2022-09-09T08:08:55;101200.44;;;20.67;63.96
23261;BME280;11799;47.740;-3.390;2022-09-09T08:11:23;101207.69;;;20.59;64.48
23261;BME280;11799;47.740;-3.390;2022-09-09T08:13:51;101203.16;;;20.59;64.59
23261;BME280;11799;47.740;-3.390;2022-09-09T08:16:19;101208.56;;;20.51;65.29
23261;BME280;11799;47.740;-3.390;2022-09-09T08:18:52;101202.56;;;20.41;64.72
23261;BME280;11799;47.740;-3.390;2022-09-09T08:21:27;101213.16;;;20.26;64.13
23261;BME280;11799;47.740;-3.390;2022-09-09T08:23:56;101217.25;;;20.14;64.62
23261;BME280;11799;47.740;-3.390;2022-09-09T08:26:24;101218.09;;;20.06;64.33
23261;BME280;11799;47.740;-3.390;2022-09-09T08:28:52;101219.28;;;19.96;65.45
23261;BME280;11799;47.740;-3.390;2022-09-09T08:33:54;101234.03;;;19.92;65.74
23261;BME280;11799;47.740;-3.390;2022-09-09T08:36:23;101225.66;;;19.78;66.12
23261;BME280;11799;47.740;-3.390;2022-09-09T08:38:51;101235.56;;;19.70;66.26
23261;BME280;11799;47.740;-3.390;2022-09-09T08:44:31;101237.22;;;19.46;66.96
23261;BME280;11799;47.740;-3.390;2022-09-09T08:50:16;101232.19;;;19.43;67.46
23261;BME280;11799;47.740;-3.390;2022-09-09T08:53:05;101239.06;;;19.30;69.22
23261;BME280;11799;47.740;-3.390;2022-09-09T08:58:28;101248.72;;;19.06;69.82
23261;BME280;11799;47.740;-3.390;2022-09-09T09:08:42;101268.75;;;18.86;69.86
23261;BME280;11799;47.740;-3.390;2022-09-09T09:11:09;101274.94;;;18.87;70.83
23261;BME280;11799;47.740;-3.390;2022-09-09T09:13:48;101274.06;;;18.78;70.19
23261;BME280;11799;47.740;-3.390;2022-09-09T09:18:59;101276.88;;;18.68;69.98
23261;BME280;11799;47.740;-3.390;2022-09-09T09:24:00;101300.34;;;18.57;69.40
23261;BME280;11799;47.740;-3.390;2022-09-09T09:26:38;101302.34;;;18.55;70.07
23261;BME280;11799;47.740;-3.390;2022-09-09T09:29:18;101294.63;;;18.52;71.06
23261;BME280;11799;47.740;-3.390;2022-09-09T09:31:52;101300.97;;;18.51;70.20
23261;BME280;11799;47.740;-3.390;2022-09-09T09:34:22;101306.50;;;18.49;71.27
23261;BME280;11799;47.740;-3.390;2022-09-09T09:36:59;101309.66;;;18.44;70.90
23261;BME280;11799;47.740;-3.390;2022-09-09T09:39:31;101314.69;;;18.47;71.59
23261;BME280;11799;47.740;-3.390;2022-09-09T09:42:27;101318.47;;;18.37;72.46
23261;BME280;11799;47.740;-3.390;2022-09-09T09:44:55;101318.69;;;18.18;73.95
23261;BME280;11799;47.740;-3.390;2022-09-09T09:47:22;101322.38;;;17.99;75.57
23261;BME280;11799;47.740;-3.390;2022-09-09T09:50:18;101337.75;;;17.79;76.35
23261;BME280;11799;47.740;-3.390;2022-09-09T09:52:54;101330.41;;;17.63;76.23
23261;BME280;11799;47.740;-3.390;2022-09-09T09:55:21;101330.00;;;17.40;76.82
23261;BME280;11799;47.740;-3.390;2022-09-09T09:57:49;101324.50;;;17.24;77.79
23261;BME280;11799;47.740;-3.390;2022-09-09T10:00:20;101330.22;;;17.11;77.92
23261;BME280;11799;47.740;-3.390;2022-09-09T10:02:54;101329.81;;;17.06;78.59
23261;BME280;11799;47.740;-3.390;2022-09-09T10:05:31;101335.06;;;16.98;79.47
23261;BME280;11799;47.740;-3.390;2022-09-09T10:08:09;101336.34;;;16.94;79.68
23261;BME280;11799;47.740;-3.390;2022-09-09T10:19:13;101333.84;;;16.83;81.35
23261;BME280;11799;47.740;-3.390;2022-09-09T10:24:48;101356.47;;;16.79;82.21
23261;BME280;11799;47.740;-3.390;2022-09-09T10:30:41;101356.72;;;16.86;82.61
23261;BME280;11799;47.740;-3.390;2022-09-09T10:36:23;101365.13;;;16.91;83.05
23261;BME280;11799;47.740;-3.390;2022-09-09T10:44:45;101361.69;;;17.08;83.70
23261;BME280;11799;47.740;-3.390;2022-09-09T10:55:19;101373.94;;;17.28;82.48
23261;BME280;11799;47.740;-3.390;2022-09-09T10:57:50;101378.84;;;17.33;83.15
23261;BME280;11799;47.740;-3.390;2022-09-09T11:00:20;101377.81;;;17.34;82.75
23261;BME280;11799;47.740;-3.390;2022-09-09T11:02:56;101375.97;;;17.34;82.56
23261;BME280;11799;47.740;-3.390;2022-09-09T11:08:02;101381.88;;;17.38;81.89
23261;BME280;11799;47.740;-3.390;2022-09-09T11:10:47;101385.31;;;17.48;82.63
23261;BME280;11799;47.740;-3.390;2022-09-09T11:18:47;101380.47;;;17.61;82.07
23261;BME280;11799;47.740;-3.390;2022-09-09T11:21:21;101379.47;;;17.62;81.58
23261;BME280;11799;47.740;-3.390;2022-09-09T11:26:55;101376.81;;;17.62;82.05
23261;BME280;11799;47.740;-3.390;2022-09-09T11:40:16;101375.78;;;17.91;83.24
23261;BME280;11799;47.740;-3.390;2022-09-09T11:42:43;101367.81;;;17.99;83.70
23261;BME280;11799;47.740;-3.390;2022-09-09T11:45:10;101368.25;;;18.12;84.15
23261;BME280;11799;47.740;-3.390;2022-09-09T11:47:37;101360.81;;;18.24;84.28
23261;BME280;11799;47.740;-3.390;2022-09-09T11:52:45;101368.38;;;18.54;84.11
23261;BME280;11799;47.740;-3.390;2022-09-09T12:00:40;101362.25;;;18.88;80.82
23261;BME280;11799;47.740;-3.390;2022-09-09T12:06:13;101370.31;;;18.96;79.52
23261;BME280;11799;47.740;-3.390;2022-09-09T12:08:46;101372.88;;;19.05;80.02
23261;BME280;11799;47.740;-3.390;2022-09-09T12:11:25;101368.16;;;19.07;76.59
23261;BME280;11799;47.740;-3.390;2022-09-09T12:14:01;101364.00;;;19.13;77.20
23261;BME280;11799;47.740;-3.390;2022-09-09T12:16:29;101368.19;;;19.16;77.39
23261;BME280;11799;47.740;-3.390;2022-09-09T12:19:04;101373.22;;;19.19;76.64
23261;BME280;11799;47.740;-3.390;2022-09-09T12:21:57;101374.78;;;19.29;75.01
23261;BME280;11799;47.740;-3.390;2022-09-09T12:24:55;101369.78;;;19.42;72.53
23261;BME280;11799;47.740;-3.390;2022-09-09T12:27:31;101375.88;;;19.53;73.17
23261;BME280;11799;47.740;-3.390;2022-09-09T12:30:09;101373.41;;;19.59;71.12
23261;BME280;11799;47.740;-3.390;2022-09-09T12:32:36;101369.69;;;19.68;70.81
23261;BME280;11799;47.740;-3.390;2022-09-09T12:35:11;101371.56;;;19.76;69.98
23261;BME280;11799;47.740;-3.390;2022-09-09T12:37:52;101370.88;;;19.82;67.57
23261;BME280;11799;47.740;-3.390;2022-09-09T12:40:33;101370.06;;;19.90;68.35
23261;BME280;11799;47.740;-3.390;2022-09-09T12:43:21;101385.66;;;19.94;64.28
23261;BME280;11799;47.740;-3.390;2022-09-09T12:45:49;101378.78;;;20.00;67.55
23261;BME280;11799;47.740;-3.390;2022-09-09T12:48:27;101383.47;;;20.06;67.22
23261;BME280;11799;47.740;-3.390;2022-09-09T12:50:55;101381.13;;;20.11;70.01
23261;BME280;11799;47.740;-3.390;2022-09-09T12:53:23;101391.19;;;20.17;68.72
23261;BME280;11799;47.740;-3.390;2022-09-09T12:58:25;101388.47;;;20.25;68.14
23261;BME280;11799;47.740;-3.390;2022-09-09T13:00:55;101388.81;;;20.22;67.68
23261;BME280;11799;47.740;-3.390;2022-09-09T13:03:22;101394.84;;;20.24;68.74
23261;BME280;11799;47.740;-3.390;2022-09-09T13:05:48;101398.03;;;20.28;67.09
23261;BME280;11799;47.740;-3.390;2022-09-09T13:08:16;101391.81;;;20.27;68.28
23261;BME280;11799;47.740;-3.390;2022-09-09T13:11:01;101394.69;;;20.26;66.58
23261;BME280;11799;47.740;-3.390;2022-09-09T13:13:31;101392.66;;;20.28;70.37
23261;BME280;11799;47.740;-3.390;2022-09-09T13:16:00;101401.56;;;20.28;69.37
23261;BME280;11799;47.740;-3.390;2022-09-09T13:18:30;101398.69;;;20.30;67.30
23261;BME280;11799;47.740;-3.390;2022-09-09T13:20:57;101385.13;;;20.31;66.87
23261;BME280;11799;47.740;-3.390;2022-09-09T13:23:28;101393.84;;;20.25;69.06
23261;BME280;11799;47.740;-3.390;2022-09-09T13:25:59;101398.03;;;20.28;67.00
23261;BME280;11799;47.740;-3.390;2022-09-09T13:28:28;101385.97;;;20.24;69.22
23261;BME280;11799;47.740;-3.390;2022-09-09T13:33:29;101400.06;;;20.18;68.84
23261;BME280;11799;47.740;-3.390;2022-09-09T13:36:02;101396.72;;;20.16;67.45
23261;BME280;11799;47.740;-3.390;2022-09-09T13:38:32;101397.56;;;20.16;66.77
23261;BME280;11799;47.740;-3.390;2022-09-09T13:41:00;101398.22;;;20.18;69.71
23261;BME280;11799;47.740;-3.390;2022-09-09T13:43:30;101410.13;;;20.16;68.23
23261;BME280;11799;47.740;-3.390;2022-09-09T13:46:03;101412.31;;;20.12;67.11
23261;BME280;11799;47.740;-3.390;2022-09-09T13:48:29;101404.44;;;20.10;65.44
23261;BME280;11799;47.740;-3.390;2022-09-09T13:51:02;101405.09;;;20.13;69.30
23261;BME280;11799;47.740;-3.390;2022-09-09T13:53:31;101413.81;;;20.15;66.61
23261;BME280;11799;47.740;-3.390;2022-09-09T13:55:57;101416.00;;;20.11;65.79
23261;BME280;11799;47.740;-3.390;2022-09-09T13:58:23;101405.09;;;20.13;67.58
23261;BME280;11799;47.740;-3.390;2022-09-09T14:00:52;101405.44;;;20.18;67.42
23261;BME280;11799;47.740;-3.390;2022-09-09T14:03:18;101411.47;;;20.20;67.62
23261;BME280;11799;47.740;-3.390;2022-09-09T14:05:44;101414.47;;;20.17;68.24
23261;BME280;11799;47.740;-3.390;2022-09-09T14:08:16;101413.66;;;20.16;67.99
23261;BME280;11799;47.740;-3.390;2022-09-09T14:10:46;101417.50;;;20.14;68.51
23261;BME280;11799;47.740;-3.390;2022-09-09T14:13:11;101413.47;;;20.09;67.45
23261;BME280;11799;47.740;-3.390;2022-09-09T14:15:37;101409.28;;;20.07;67.27
23261;BME280;11799;47.740;-3.390;2022-09-09T14:18:03;101425.22;;;20.08;67.22
23261;BME280;11799;47.740;-3.390;2022-09-09T14:20:29;101418.16;;;20.07;66.59
23261;BME280;11799;47.740;-3.390;2022-09-09T14:22:54;101434.41;;;20.06;66.59
23261;BME280;11799;47.740;-3.390;2022-09-09T14:25:21;101425.19;;;20.00;68.58
23261;BME280;11799;47.740;-3.390;2022-09-09T14:27:47;101435.41;;;20.05;67.57
23261;BME280;11799;47.740;-3.390;2022-09-09T14:30:12;101433.75;;;20.04;66.66
23261;BME280;11799;47.740;-3.390;2022-09-09T14:32:38;101428.88;;;19.91;65.75
23261;BME280;11799;47.740;-3.390;2022-09-09T14:35:04;101433.69;;;19.79;64.14
23261;BME280;11799;47.740;-3.390;2022-09-09T14:37:29;101433.84;;;19.70;66.82
23261;BME280;11799;47.740;-3.390;2022-09-09T14:39:56;101440.38;;;19.59;64.16
23261;BME280;11799;47.740;-3.390;2022-09-09T14:42:22;101447.06;;;19.55;64.89
23261;BME280;11799;47.740;-3.390;2022-09-09T14:44:48;101446.94;;;19.39;64.11
23261;BME280;11799;47.740;-3.390;2022-09-09T14:47:14;101452.94;;;19.33;65.56
23261;BME280;11799;47.740;-3.390;2022-09-09T14:49:39;101445.88;;;19.24;67.37
23261;BME280;11799;47.740;-3.390;2022-09-09T14:52:05;101453.50;;;19.10;67.82
23261;BME280;11799;47.740;-3.390;2022-09-09T14:54:31;101440.25;;;19.01;69.24
23261;BME280;11799;47.740;-3.390;2022-09-09T14:56:57;101445.47;;;19.02;71.94
23261;BME280;11799;47.740;-3.390;2022-09-09T14:59:24;101444.47;;;19.03;72.08
23261;BME280;11799;47.740;-3.390;2022-09-09T15:01:49;101440.63;;;19.06;72.00
23261;BME280;11799;47.740;-3.390;2022-09-09T15:04:15;101439.81;;;19.13;70.71
23261;BME280;11799;47.740;-3.390;2022-09-09T15:06:42;101436.31;;;19.21;71.14
23261;BME280;11799;47.740;-3.390;2022-09-09T15:09:10;101434.53;;;19.30;71.15
23261;BME280;11799;47.740;-3.390;2022-09-09T15:11:37;101429.69;;;19.33;70.94
23261;BME280;11799;47.740;-3.390;2022-09-09T15:14:04;101420.69;;;19.42;68.05
23261;BME280;11799;47.740;-3.390;2022-09-09T15:16:30;101420.38;;;19.45;66.39
23261;BME280;11799;47.740;-3.390;2022-09-09T15:18:59;101431.31;;;19.52;66.94
23261;BME280;11799;47.740;-3.390;2022-09-09T15:21:33;101429.13;;;19.56;67.39
23261;BME280;11799;47.740;-3.390;2022-09-09T15:23:59;101434.53;;;19.64;68.51
23261;BME280;11799;47.740;-3.390;2022-09-09T15:26:25;101422.59;;;19.66;68.03
23261;BME280;11799;47.740;-3.390;2022-09-09T15:28:51;101429.81;;;19.66;66.49
23261;BME280;11799;47.740;-3.390;2022-09-09T15:31:28;101432.31;;;19.67;66.54
23261;BME280;11799;47.740;-3.390;2022-09-09T15:34:02;101428.31;;;19.71;67.54
23261;BME280;11799;47.740;-3.390;2022-09-09T15:38:54;101422.78;;;19.73;66.94
23261;BME280;11799;47.740;-3.390;2022-09-09T15:41:21;101425.47;;;19.73;67.71